Station info - map view · info · telemetry · weather · raw · status · beacons · messages · bulletins · browse · moving · my account
Callsign, ship name or locator: Clear       
It is possible to search using wildcards (*?) after a prefix. Example: OH*
APRS station AE7V-14 - show graphs
Map loading...
Comment: wlnk-1 Hi from MT
Mic-E message: Returning
Last status: RON IN SALMON ARM, rle73@telus.net
Location: 45°57.75' N 108°09.84' W - locator DN55WX01HA - show map - static map
15.6 miles Northeast bearing 51° from Lockwood, Yellowstone County, Montana, United States [?]
20.4 miles Northeast bearing 52° from Billings, Yellowstone County, Montana, United States
Last position: 2016-09-16 15:37:40 EDT (9d 18h17m ago)
2016-09-16 13:37:40 MDT local time at Lockwood, United States [?]
Altitude: 2982 ft
Course:
Speed: 1 MPH
Device: Kenwood: TM-D700 (rig)
Last path: AE7V-14>T55WWU via REDLDG*,WIDE2-1,WIDE3-3,qAR,KG7QHP (bad)
This station is transmitting packets with a configured path of over 3 digipeaters. This causes serious congestion in the APRS network and errors when plotting the station's route on a map. Please consider using a path of WIDE1-1,WIDE2-1 or WIDE2-2, or even WIDE1-1,WIDE2-2 if you are moving very far away from an iGATE.
Positions stored: 24399
Other SSIDs: AE7V-5
Stations near current position of AE7V-14 - show more
callsign distance last heard - EDT      callsign distance last heard - EDT
KG7VGX-115.1 miles 253°2016-09-26 09:46:20 KG7ZKV-715.1 miles 253°2016-09-18 15:53:18
EW913016.2 miles 236°2016-09-26 09:46:47 BYZSVRNDA17.2 miles 211°2016-09-05 20:04:31
KF6WYL-118.4 miles 234°2016-09-26 09:45:32 KE7FEL18.9 miles 235°2016-09-10 23:29:45
K7EFA20.3 miles 234°2016-09-12 22:35:19 WN7Y-720.6 miles 236°2016-09-22 18:15:00
KG7QHP20.6 miles 233°2016-09-26 09:41:52 B.C.20.7 miles 235°2016-09-12 22:05:27
St. V's20.7 miles 236°2016-09-12 22:05:09 KC7AX-1021.0 miles 240°2016-09-26 09:38:39
145.410-21.5 miles 315°2016-09-12 22:05:13 N7VR-221.6 miles 234°2016-09-26 09:50:03
N7VR-121.6 miles 234°2016-09-26 09:37:38 K7EFA-122.6 miles 239°2016-09-26 09:52:22
CGYVIP-122.6 miles 239°2016-09-17 19:52:54 WN7Y-622.7 miles 239°2016-09-24 17:36:28
AD7MQ B23.2 miles 237°2016-09-23 14:45:54 AD7MQ-B23.2 miles 237°2016-09-23 14:46:04
Stations which heard AE7V-14 directly on radio –
callsign pkts first heard - EDT last heard longest (tx => rx) longest at - EDT
WA7RVV-11 806 2016-08-31 20:04:45 2016-09-04 12:43:15 DN17RA > DN17LN 46.1 miles 330° 2016-09-03 05:57:11
N7VR-1 5 2016-09-04 20:41:23 2016-09-06 12:59:41 DN55ST > DN55RS 2.3 miles 243° 2016-09-06 12:39:33
MAUER 5 2016-09-04 16:59:53 2016-09-04 17:35:10 DN36OB > DN34PW 79.0 miles 178° 2016-09-04 16:59:53
CHILL 7 2016-09-04 16:24:40 2016-09-04 17:20:00 DN35SW > DN36MC 28.4 miles 296° 2016-09-04 17:20:00
TOSTON 5 2016-09-04 17:55:25 2016-09-04 18:25:36 DN45EW > DN46HC 17.7 miles 39° 2016-09-04 17:55:25
BOLDER 1 2016-09-04 17:45:21 2016-09-04 17:45:21 DN45BV > DN36WH 32.7 miles 339° 2016-09-04 17:45:21
MACPAS 2 2016-09-04 16:29:42 2016-09-04 16:39:45 DN36PJ > DN36UO 23.8 miles 58° 2016-09-04 16:39:45
UNVMTN 3 2016-09-04 15:24:12 2016-09-04 15:34:16 DN36DS > DN36AU 11.4 miles 299° 2016-09-04 15:34:16
PATKNB 5 2016-09-04 13:13:25 2016-09-04 14:08:45 DN27DK > DN27NI 39.5 miles 98° 2016-09-04 13:13:25
LOOKOT 4 2016-09-04 12:48:17 2016-09-04 13:23:30 DN17WM > DN27EK 22.3 miles 105° 2016-09-04 12:48:17
HOWARD 1 2016-09-04 10:52:35 2016-09-04 10:52:35 DN17RD > DN15JG 132.3 miles 193° 2016-09-04 10:52:35
GOLDCR 1 2016-09-04 16:04:28 2016-09-04 16:04:28 DN36KP > DN36NM 11.8 miles 127° 2016-09-04 16:04:28
EAGLHD 1 2016-09-04 19:00:48 2016-09-04 19:00:48 DN45PP > DN45KF 36.6 miles 214° 2016-09-04 19:00:48
K7YD-11 1 2016-09-04 19:05:49 2016-09-04 19:05:49 DN45RP > DN45ST 12.1 miles 20° 2016-09-04 19:05:49
AF7HG-1 3 2016-09-04 18:30:38 2016-09-04 18:50:43 DN45MP > DN45JS 16.3 miles 302° 2016-09-04 18:50:43
SHEEPM 6 2016-09-04 19:10:52 2016-09-04 19:41:03 DN55CS > DN45TS 25.0 miles 266° 2016-09-04 19:41:03
W7XT-1 11 2016-09-04 14:28:51 2016-09-04 15:19:10 DN27TA > DN26XT 22.6 miles 126° 2016-09-04 14:28:51
REDLDG 55 2016-09-04 20:01:12 2016-09-16 15:37:40 OJ00AA > DN55HE 8830.7 miles 26° 2016-09-16 13:29:41
KG7QHP 3 2016-09-16 14:35:05 2016-09-16 15:10:22 DN55QR > DN55RS 5.6 miles 52° 2016-09-16 14:40:07
KL7JGS-1 4 2016-09-04 17:50:22 2016-09-04 18:45:42 DN45DV > DN45LQ 35.9 miles 114° 2016-09-04 17:50:22

Only position packets which were originated by the station are shown here. The range statistics show some extra long hops, because some digipeaters do not correctly add themselves to the digipeater path. Please check the raw packets.
About this site
This page shows real-time information collected from the Automatic Position Reporting System Internet network (APRS-IS). APRS is used by amateur (ham) radio operators to transmit real-time position information, weather data, telemetry and messages over the radio. A vehicle equipped with a GPS receiver, a VHF transmitter or HF transceiver and a small computer device called a tracker transmits it's location, speed and course in a small data packet, which is then received by a nearby iGate receiving site which forwards the packet on the Internet. Systems connected to the Internet can send information on the APRS-IS without a radio transmitter, or collect and display information transmitted anywhere in the world.
FAQ · Blog · Discussion group · Linking to aprs.fi · AIS sites · Service status · Database statistics · Advertising on aprs.fi · Technical details · API · Change log · Planned changes · Credits and thanks · Terms Of Service · iPhone/iPad APRS